Time;durP1;ratioP1;P1;durP2;ratioP2;P2;SDS_P1;SDS_P2;PMS_P1;PMS_P2;Temp;Humidity;BMP_temperature;BMP_pressure;BME280_temperature;BME280_humidity;BME280_pressure;Samples;Min_cycle;Max_cycle;Signal;HPM_P1;HPM_P2
2023/03/12 00:00:38;;;;;;;0.00;0.00;;;12.30;99.90;;;;;;5093239;28;20027;-78
2023/03/12 00:03:04;;;;;;;0.65;0.65;;;12.30;99.90;;;;;;5101772;28;20104;-78
2023/03/12 00:05:30;;;;;;;0.10;0.10;;;12.30;99.90;;;;;;5098987;28;20036;-79
2023/03/12 00:07:58;;;;;;;0.10;0.10;;;12.30;99.90;;;;;;5098523;28;20099;-79
2023/03/12 00:10:25;;;;;;;0.13;0.13;;;12.50;99.90;;;;;;5078049;28;20098;-79
2023/03/12 00:12:51;;;;;;;14.40;1.83;;;12.40;99.90;;;;;;5095017;28;20031;-79
2023/03/12 00:15:16;;;;;;;0.10;0.10;;;12.40;99.90;;;;;;5080950;28;20078;-79
2023/03/12 00:17:42;;;;;;;0.13;0.13;;;12.40;99.90;;;;;;5096653;28;20142;-78
2023/03/12 00:20:11;;;;;;;3.25;1.42;;;12.40;99.90;;;;;;5092135;28;21662;-78
2023/03/12 00:22:37;;;;;;;0.10;0.10;;;12.40;99.90;;;;;;5097091;28;20023;-79
2023/03/12 00:25:05;;;;;;;0.10;0.10;;;12.40;99.90;;;;;;5098427;28;20074;-79
2023/03/12 00:27:31;;;;;;;0.30;0.30;;;12.40;99.90;;;;;;5088203;28;20030;-79
2023/03/12 00:29:57;;;;;;;0.10;0.10;;;12.30;99.90;;;;;;5087468;28;20024;-79
2023/03/12 00:32:23;;;;;;;0.10;0.10;;;12.20;99.90;;;;;;5094559;28;20028;-80
2023/03/12 00:34:53;;;;;;;34.73;1.93;;;12.30;99.90;;;;;;5101001;28;20107;-79
2023/03/12 00:37:20;;;;;;;0.75;0.75;;;12.30;99.90;;;;;;5083468;28;20024;-79
2023/03/12 00:39:46;;;;;;;0.95;0.90;;;12.20;99.90;;;;;;5079850;28;20035;-79
2023/03/12 00:42:11;;;;;;;0.20;0.20;;;12.30;99.90;;;;;;5095790;28;20040;-79
2023/03/12 00:44:37;;;;;;;0.10;0.10;;;12.20;99.90;;;;;;5099490;28;20051;-79
2023/03/12 00:47:03;;;;;;;0.77;0.77;;;12.10;99.90;;;;;;5095935;28;20501;-79
2023/03/12 00:49:29;;;;;;;0.57;0.57;;;12.10;99.90;;;;;;5076881;28;20241;-79
2023/03/12 00:51:54;;;;;;;0.10;0.10;;;12.10;99.90;;;;;;5088452;28;20087;-79
2023/03/12 00:54:20;;;;;;;0.10;0.10;;;12.10;99.90;;;;;;5092627;28;20032;-80
2023/03/12 00:56:46;;;;;;;14.98;2.00;;;12.10;99.90;;;;;;5079512;28;20027;-80
2023/03/12 00:59:13;;;;;;;0.63;0.63;;;12.10;99.90;;;;;;5090950;28;20045;-79
2023/03/12 01:01:39;;;;;;;0.47;0.47;;;12.00;99.90;;;;;;5100527;28;20145;-80
2023/03/12 01:04:05;;;;;;;0.10;0.10;;;12.00;99.90;;;;;;5100655;28;20540;-80
2023/03/12 01:06:30;;;;;;;12.52;0.98;;;12.10;99.90;;;;;;5095156;28;20052;-79
2023/03/12 01:08:56;;;;;;;1.00;0.90;;;12.10;99.90;;;;;;5096400;28;20073;-79
2023/03/12 01:11:22;;;;;;;0.55;0.55;;;12.00;99.90;;;;;;5099635;28;20027;-79
2023/03/12 01:13:48;;;;;;;0.40;0.40;;;12.00;99.90;;;;;;5070491;28;20032;-79
2023/03/12 01:16:14;;;;;;;10.43;1.60;;;12.00;99.90;;;;;;5078029;28;20032;-81
2023/03/12 01:18:40;;;;;;;6.88;1.80;;;11.90;99.90;;;;;;5081821;28;20764;-80
2023/03/12 01:21:06;;;;;;;8.90;1.00;;;11.90;99.90;;;;;;5090501;28;20039;-80
2023/03/12 01:23:31;;;;;;;0.88;0.68;;;11.90;99.90;;;;;;5095677;28;20552;-79
2023/03/12 01:25:58;;;;;;;0.65;0.65;;;11.80;99.90;;;;;;5096642;28;20036;-79
2023/03/12 01:28:25;;;;;;;0.35;0.35;;;11.80;99.90;;;;;;5095407;28;20051;-81
2023/03/12 01:30:50;;;;;;;0.13;0.13;;;11.80;99.90;;;;;;5075708;28;20031;-80
2023/03/12 01:33:17;;;;;;;0.20;0.20;;;11.80;99.90;;;;;;5097706;27;20399;-80
2023/03/12 01:35:43;;;;;;;0.32;0.32;;;11.70;99.90;;;;;;5100603;28;20027;-79
2023/03/12 01:38:14;;;;;;;0.00;0.00;;;11.80;99.90;;;;;;5101449;28;20073;-79
2023/03/12 01:40:41;;;;;;;0.35;0.35;;;11.70;99.90;;;;;;5082125;28;20485;-79
2023/03/12 01:43:24;;;;;;;1.58;0.77;;;11.70;99.90;;;;;;5092702;28;20151;-79
2023/03/12 01:45:59;;;;;;;0.10;0.10;;;11.70;99.90;;;;;;5076717;28;20066;-79
2023/03/12 01:48:29;;;;;;;0.17;0.17;;;11.70;99.90;;;;;;5091880;28;20764;-79
2023/03/12 01:50:55;;;;;;;1.88;1.70;;;11.60;99.90;;;;;;5096493;28;20046;-78
2023/03/12 01:53:21;;;;;;;2.25;1.33;;;11.70;99.90;;;;;;5097385;28;20032;-78
2023/03/12 01:55:47;;;;;;;0.10;0.10;;;11.70;99.90;;;;;;5094281;28;21241;-78
2023/03/12 01:58:14;;;;;;;1.30;1.00;;;11.60;99.90;;;;;;5096497;28;20036;-78
2023/03/12 02:00:40;;;;;;;0.35;0.20;;;11.70;99.90;;;;;;5079365;28;20032;-79
2023/03/12 02:03:08;;;;;;;0.03;0.03;;;11.70;99.90;;;;;;5098162;28;20052;-78
2023/03/12 02:05:52;;;;;;;0.40;0.40;;;11.70;99.90;;;;;;5077554;28;20498;-79
2023/03/12 02:08:18;;;;;;;0.38;0.38;;;11.70;99.90;;;;;;5095431;28;20042;-79
2023/03/12 02:10:44;;;;;;;0.32;0.32;;;11.70;99.90;;;;;;5099080;28;20152;-79
2023/03/12 02:13:11;;;;;;;0.73;0.73;;;11.60;99.90;;;;;;5099386;28;20039;-81
2023/03/12 02:15:38;;;;;;;0.30;0.30;;;11.60;99.90;;;;;;5103288;28;20055;-80
2023/03/12 02:18:10;;;;;;;1.17;1.17;;;11.70;99.90;;;;;;5100903;28;20023;-80
2023/03/12 02:20:51;;;;;;;0.55;0.55;;;11.60;99.90;;;;;;5099335;28;20046;-80
2023/03/12 02:23:29;;;;;;;1.75;0.77;;;11.50;99.90;;;;;;5092398;28;20039;-80
2023/03/12 02:25:56;;;;;;;0.70;0.70;;;11.50;99.90;;;;;;5097981;28;20035;-81
2023/03/12 02:28:25;;;;;;;1.38;1.20;;;11.50;99.90;;;;;;5091910;28;20098;-78
2023/03/12 02:30:55;;;;;;;0.88;0.88;;;11.50;99.90;;;;;;5100436;28;20522;-79
2023/03/12 02:33:21;;;;;;;4.85;1.17;;;11.40;99.90;;;;;;5093153;28;20032;-80
2023/03/12 02:35:47;;;;;;;0.10;0.10;;;11.50;99.90;;;;;;5097002;28;20399;-81
2023/03/12 02:38:28;;;;;;;0.32;0.32;;;11.50;99.90;;;;;;5074787;28;20035;-80
2023/03/12 02:40:57;;;;;;;2.28;1.30;;;11.50;99.90;;;;;;5096624;28;20195;-79
2023/03/12 02:43:23;;;;;;;0.00;0.00;;;11.50;99.90;;;;;;5098579;28;20032;-78
2023/03/12 02:45:48;;;;;;;0.70;0.70;;;11.50;99.90;;;;;;5098584;28;20077;-80
2023/03/12 02:48:14;;;;;;;0.00;0.00;;;11.50;99.90;;;;;;5083887;28;20139;-79
2023/03/12 02:50:40;;;;;;;1.58;1.15;;;11.50;99.90;;;;;;5095029;28;20087;-79
2023/03/12 02:53:05;;;;;;;0.80;0.80;;;11.50;99.90;;;;;;5095571;28;20103;-79
2023/03/12 02:55:31;;;;;;;0.10;0.10;;;11.40;99.90;;;;;;5078126;28;20077;-79
2023/03/12 02:57:57;;;;;;;0.20;0.20;;;11.50;99.90;;;;;;5095391;28;20038;-79
2023/03/12 03:00:22;;;;;;;0.10;0.10;;;11.50;99.90;;;;;;5097620;28;20041;-79
2023/03/12 03:02:48;;;;;;;0.00;0.00;;;11.50;99.90;;;;;;5082203;28;20046;-79
2023/03/12 03:05:13;;;;;;;1.07;1.07;;;11.50;99.90;;;;;;5097293;28;20031;-79
2023/03/12 03:07:39;;;;;;;0.10;0.10;;;11.40;99.90;;;;;;5095322;28;20148;-79
2023/03/12 03:10:05;;;;;;;0.40;0.40;;;11.40;99.90;;;;;;5098773;28;21058;-79
2023/03/12 03:12:33;;;;;;;0.43;0.43;;;11.50;99.90;;;;;;5095353;28;20968;-78
2023/03/12 03:14:59;;;;;;;0.47;0.47;;;11.30;99.90;;;;;;5094253;28;20036;-78
2023/03/12 03:17:26;;;;;;;0.55;0.20;;;11.30;99.90;;;;;;5102262;28;20140;-79
2023/03/12 03:19:52;;;;;;;5.15;1.67;;;11.30;99.90;;;;;;5096510;28;20027;-79
2023/03/12 03:22:19;;;;;;;0.97;0.97;;;11.30;99.90;;;;;;5091056;28;20024;-79
2023/03/12 03:24:45;;;;;;;1.15;0.55;;;11.30;99.90;;;;;;5074549;28;20126;-78
2023/03/12 03:27:11;;;;;;;2.10;0.88;;;11.30;99.90;;;;;;5099430;28;20138;-78
2023/03/12 03:29:37;;;;;;;0.70;0.70;;;11.30;99.90;;;;;;5097314;27;20031;-79
2023/03/12 03:32:03;;;;;;;0.20;0.20;;;11.30;99.90;;;;;;5101314;28;20023;-79
2023/03/12 03:34:28;;;;;;;2.08;0.52;;;11.20;99.90;;;;;;5089526;28;20039;-80
2023/03/12 03:36:54;;;;;;;0.30;0.30;;;11.20;99.90;;;;;;5088939;28;20032;-79
2023/03/12 03:39:20;;;;;;;0.93;0.80;;;11.20;99.90;;;;;;5099840;28;20178;-78
2023/03/12 03:41:46;;;;;;;3.93;0.90;;;11.20;99.90;;;;;;5083413;28;20418;-80
2023/03/12 03:44:12;;;;;;;1.25;0.70;;;11.20;99.90;;;;;;5101532;28;20044;-82
2023/03/12 03:46:39;;;;;;;1.05;1.00;;;11.20;99.90;;;;;;5094259;28;20494;-79
2023/03/12 03:49:05;;;;;;;7.70;1.65;;;11.10;99.90;;;;;;5081790;28;20031;-79
2023/03/12 03:51:31;;;;;;;0.10;0.10;;;11.10;99.90;;;;;;5098207;28;20031;-80
2023/03/12 03:53:59;;;;;;;0.10;0.10;;;11.10;99.90;;;;;;5091169;28;20047;-79
2023/03/12 03:56:25;;;;;;;0.25;0.25;;;11.10;99.90;;;;;;5094084;28;20026;-80
2023/03/12 03:58:51;;;;;;;5.90;1.75;;;10.80;99.90;;;;;;5098279;28;20028;-81
2023/03/12 04:01:17;;;;;;;0.22;0.22;;;10.70;99.90;;;;;;5098755;28;20028;-79
2023/03/12 04:03:43;;;;;;;0.10;0.10;;;10.70;99.90;;;;;;5082394;28;20101;-79
2023/03/12 04:06:10;;;;;;;0.52;0.52;;;10.60;99.90;;;;;;5098430;28;20027;-79
2023/03/12 04:08:36;;;;;;;5.10;1.98;;;10.60;99.90;;;;;;5090190;28;20051;-80
2023/03/12 04:11:10;;;;;;;5.07;1.63;;;10.50;99.90;;;;;;5099762;28;20050;-80
2023/03/12 04:13:36;;;;;;;1.02;1.02;;;10.50;99.90;;;;;;5099108;28;20106;-80
2023/03/12 04:16:02;;;;;;;3.83;3.20;;;10.50;99.90;;;;;;5085475;28;20020;-80
2023/03/12 04:18:28;;;;;;;0.52;0.52;;;10.50;99.90;;;;;;5095299;28;20032;-79
2023/03/12 04:20:53;;;;;;;0.10;0.10;;;10.50;99.90;;;;;;5076275;28;20045;-80
2023/03/12 04:23:19;;;;;;;1.77;1.48;;;10.50;99.90;;;;;;5096889;28;20036;-79
2023/03/12 04:25:45;;;;;;;0.10;0.10;;;10.50;99.90;;;;;;5093686;28;20909;-80
2023/03/12 04:28:10;;;;;;;1.58;0.93;;;10.50;99.90;;;;;;5090492;28;20667;-79
2023/03/12 04:30:37;;;;;;;0.30;0.30;;;10.50;99.90;;;;;;5097829;28;20438;-80
2023/03/12 04:33:05;;;;;;;1.10;0.80;;;10.60;99.90;;;;;;5091605;28;20111;-79
2023/03/12 04:35:31;;;;;;;0.17;0.17;;;10.50;99.90;;;;;;5087851;28;20032;-79
2023/03/12 04:37:59;;;;;;;0.75;0.75;;;10.60;99.90;;;;;;5090371;28;20073;-80
2023/03/12 04:40:24;;;;;;;29.30;0.65;;;10.50;99.90;;;;;;5100997;28;20126;-80
2023/03/12 04:42:50;;;;;;;4.93;1.67;;;10.60;99.90;;;;;;5093619;28;20482;-80
2023/03/12 04:45:16;;;;;;;1.30;1.20;;;10.60;99.90;;;;;;5093418;28;20036;-80
2023/03/12 04:47:41;;;;;;;0.45;0.45;;;10.50;99.90;;;;;;5097809;28;20031;-80
2023/03/12 04:50:08;;;;;;;5.67;2.00;;;10.50;99.90;;;;;;5105109;28;20528;-79
2023/03/12 04:52:34;;;;;;;0.10;0.10;;;10.50;99.90;;;;;;5098573;28;20538;-79
2023/03/12 04:55:00;;;;;;;2.27;1.00;;;10.40;99.90;;;;;;5092805;28;20063;-80
2023/03/12 04:57:25;;;;;;;0.43;0.43;;;10.40;99.90;;;;;;5103255;28;20170;-80
2023/03/12 04:59:51;;;;;;;0.50;0.50;;;10.40;99.90;;;;;;5105394;28;20030;-79
2023/03/12 05:02:17;;;;;;;0.52;0.52;;;10.40;99.90;;;;;;5095710;27;21383;-81
2023/03/12 05:04:43;;;;;;;4.70;1.75;;;10.40;99.90;;;;;;5097460;28;20032;-78
2023/03/12 05:07:09;;;;;;;0.15;0.15;;;10.50;99.90;;;;;;5097374;28;20023;-79
2023/03/12 05:09:34;;;;;;;6.72;0.77;;;10.50;99.90;;;;;;5102300;28;20132;-80
2023/03/12 05:12:00;;;;;;;0.20;0.20;;;10.50;99.90;;;;;;5100896;27;20031;-80
2023/03/12 05:14:26;;;;;;;1.35;1.33;;;10.50;99.90;;;;;;5096840;28;20067;-79
2023/03/12 05:16:52;;;;;;;0.35;0.35;;;10.50;99.90;;;;;;5094313;28;20038;-80
2023/03/12 05:19:17;;;;;;;0.65;0.65;;;10.40;99.90;;;;;;5097882;28;20062;-80
2023/03/12 05:21:43;;;;;;;0.30;0.30;;;10.40;99.90;;;;;;5100231;28;20760;-79
2023/03/12 05:24:11;;;;;;;0.10;0.10;;;10.40;99.90;;;;;;5101031;28;20039;-80
2023/03/12 05:26:37;;;;;;;2.58;1.33;;;10.40;99.90;;;;;;5099243;28;20046;-80
2023/03/12 05:29:04;;;;;;;0.55;0.55;;;10.40;99.90;;;;;;5097350;28;20032;-80
2023/03/12 05:31:33;;;;;;;;;;;10.40;99.90;;;;;;5102675;28;20028;-78
2023/03/12 05:34:00;;;;;;;1.23;0.73;;;10.40;99.90;;;;;;5096260;28;19912;-79
2023/03/12 05:36:26;;;;;;;0.10;0.10;;;10.40;99.90;;;;;;5099845;28;20030;-79
2023/03/12 05:38:51;;;;;;;1.00;0.57;;;10.40;99.90;;;;;;5100936;28;20028;-78
2023/03/12 05:41:28;;;;;;;5.63;2.08;;;10.40;99.90;;;;;;5098619;28;20073;-79
2023/03/12 05:43:55;;;;;;;0.10;0.10;;;10.30;99.90;;;;;;5102015;28;20043;-79
2023/03/12 05:46:22;;;;;;;;;;;10.30;99.90;;;;;;5091388;28;20159;-78
2023/03/12 05:48:48;;;;;;;0.38;0.38;;;10.30;99.90;;;;;;5092914;28;19923;-79
2023/03/12 05:51:14;;;;;;;11.60;0.77;;;10.30;99.90;;;;;;5095062;28;20028;-79
2023/03/12 05:53:39;;;;;;;0.40;0.40;;;10.30;99.90;;;;;;5103219;28;20293;-79
2023/03/12 05:56:09;;;;;;;1.03;0.97;;;10.30;99.90;;;;;;5092978;28;20032;-80
2023/03/12 05:58:36;;;;;;;0.65;0.65;;;10.30;99.90;;;;;;5103540;28;20605;-81
2023/03/12 06:01:09;;;;;;;0.10;0.10;;;10.30;99.90;;;;;;5097595;28;20055;-79
2023/03/12 06:03:35;;;;;;;0.10;0.10;;;10.30;99.90;;;;;;5095748;28;20609;-81
2023/03/12 06:06:00;;;;;;;0.52;0.52;;;10.40;99.90;;;;;;5095759;28;20562;-82
2023/03/12 06:08:26;;;;;;;1.73;1.13;;;10.40;99.90;;;;;;5096990;28;20055;-81
2023/03/12 06:10:53;;;;;;;0.20;0.20;;;10.30;99.90;;;;;;5087150;28;20372;-81
2023/03/12 06:13:21;;;;;;;0.45;0.45;;;10.30;99.90;;;;;;5102253;28;20041;-80
2023/03/12 06:15:47;;;;;;;0.47;0.47;;;10.30;99.90;;;;;;5100278;28;20043;-83
2023/03/12 06:18:13;;;;;;;2.55;1.05;;;10.30;99.90;;;;;;5091032;28;20028;-84
2023/03/12 06:20:39;;;;;;;0.80;0.80;;;10.30;99.90;;;;;;5099061;28;20126;-85
2023/03/12 06:23:05;;;;;;;6.97;0.95;;;10.30;99.90;;;;;;5097611;28;20096;-82
2023/03/12 06:25:31;;;;;;;0.50;0.50;;;10.40;99.90;;;;;;5080466;28;20028;-82
2023/03/12 06:27:56;;;;;;;10.55;2.33;;;10.20;99.90;;;;;;5099100;28;20080;-80
2023/03/12 06:30:22;;;;;;;0.15;0.15;;;10.10;99.90;;;;;;5115201;27;20628;-82
2023/03/12 06:32:48;;;;;;;0.10;0.10;;;10.20;99.90;;;;;;5096326;28;20024;-81
2023/03/12 06:35:13;;;;;;;0.57;0.28;;;10.10;99.90;;;;;;5100105;28;20098;-83
2023/03/12 06:37:39;;;;;;;0.10;0.10;;;10.20;99.90;;;;;;5103621;28;20035;-81
2023/03/12 06:40:08;;;;;;;0.50;0.50;;;10.20;99.90;;;;;;5101695;28;20027;-82
2023/03/12 06:42:34;;;;;;;0.10;0.10;;;10.40;99.90;;;;;;5099063;28;20118;-84
2023/03/12 06:45:00;;;;;;;10.73;2.75;;;10.50;99.90;;;;;;5098818;28;20081;-82
2023/03/12 06:47:26;;;;;;;1.05;1.05;;;10.50;99.90;;;;;;5102578;28;20437;-80
2023/03/12 06:49:51;;;;;;;0.10;0.10;;;10.40;99.90;;;;;;5101913;27;20031;-80
2023/03/12 06:52:17;;;;;;;0.85;0.85;;;10.40;99.90;;;;;;5094985;28;20562;-80
2023/03/12 06:54:43;;;;;;;0.10;0.10;;;10.40;99.90;;;;;;5101981;28;20095;-80
2023/03/12 06:57:08;;;;;;;0.57;0.57;;;10.70;99.90;;;;;;5103514;27;20020;-81
2023/03/12 06:59:34;;;;;;;0.10;0.10;;;10.50;99.90;;;;;;5096665;28;20032;-80
2023/03/12 07:02:00;;;;;;;4.13;0.77;;;10.60;99.90;;;;;;5100581;28;20440;-80
2023/03/12 07:04:26;;;;;;;0.10;0.10;;;10.60;99.90;;;;;;5095043;28;20075;-80
2023/03/12 07:06:52;;;;;;;0.40;0.40;;;10.80;99.90;;;;;;5096663;28;20510;-79
2023/03/12 07:09:18;;;;;;;1.02;0.93;;;11.00;99.90;;;;;;5099131;28;20027;-79
2023/03/12 07:11:44;;;;;;;0.10;0.10;;;10.90;99.90;;;;;;5098798;28;20106;-79
2023/03/12 07:14:10;;;;;;;0.17;0.17;;;10.90;99.90;;;;;;5078623;28;20989;-79
2023/03/12 07:16:36;;;;;;;1.10;0.75;;;10.80;99.90;;;;;;5099801;28;20024;-79
2023/03/12 07:19:02;;;;;;;0.45;0.45;;;10.80;99.90;;;;;;5098774;28;20035;-80
2023/03/12 07:21:28;;;;;;;1.10;1.10;;;10.80;99.90;;;;;;5091310;28;20617;-79
2023/03/12 07:23:54;;;;;;;0.20;0.20;;;11.00;99.90;;;;;;5098686;28;20103;-79
2023/03/12 07:26:20;;;;;;;0.10;0.10;;;10.90;99.90;;;;;;5101018;28;20114;-78
2023/03/12 07:28:46;;;;;;;0.47;0.47;;;10.90;99.90;;;;;;5097499;28;20072;-77
2023/03/12 07:31:11;;;;;;;5.75;0.65;;;11.00;99.90;;;;;;5098464;28;20105;-77
2023/03/12 07:33:37;;;;;;;0.83;0.83;;;11.10;99.90;;;;;;5098187;28;20032;-79
2023/03/12 07:36:03;;;;;;;0.17;0.17;;;11.10;99.90;;;;;;5098918;28;20051;-77
2023/03/12 07:38:29;;;;;;;2.60;2.40;;;11.10;99.90;;;;;;5092390;28;20031;-77
2023/03/12 07:40:57;;;;;;;2.22;2.13;;;11.00;99.90;;;;;;5100750;28;20249;-77
2023/03/12 07:43:23;;;;;;;9.27;1.25;;;11.00;99.90;;;;;;5092576;28;20803;-77
2023/03/12 07:45:49;;;;;;;0.35;0.35;;;11.20;99.90;;;;;;5091484;28;20114;-77
2023/03/12 07:48:16;;;;;;;0.00;0.00;;;11.10;99.90;;;;;;5098344;28;20051;-78
2023/03/12 07:50:41;;;;;;;0.10;0.10;;;11.50;99.90;;;;;;5100801;28;20738;-77
2023/03/12 07:53:07;;;;;;;0.00;0.00;;;11.60;99.90;;;;;;5099615;28;20038;-78
2023/03/12 07:55:34;;;;;;;0.15;0.15;;;11.60;99.90;;;;;;5097778;28;20031;-78
2023/03/12 07:58:00;;;;;;;0.10;0.10;;;11.60;99.90;;;;;;5098962;28;20031;-78
2023/03/12 08:00:27;;;;;;;0.30;0.25;;;11.80;99.90;;;;;;5099573;28;20032;-78
2023/03/12 08:02:53;;;;;;;0.10;0.10;;;11.80;99.90;;;;;;5099853;28;20047;-78
2023/03/12 08:05:23;;;;;;;1.60;0.73;;;12.00;99.90;;;;;;5097489;28;20094;-77
2023/03/12 08:07:52;;;;;;;0.10;0.10;;;12.20;99.90;;;;;;5095669;28;20016;-78
2023/03/12 08:10:19;;;;;;;0.10;0.10;;;12.50;99.90;;;;;;5093680;28;20027;-78
2023/03/12 08:12:44;;;;;;;0.77;0.77;;;12.60;99.90;;;;;;5100916;28;20110;-78
2023/03/12 08:15:11;;;;;;;5.13;0.80;;;12.60;99.90;;;;;;5096333;28;20031;-78
2023/03/12 08:17:37;;;;;;;;;;;12.30;99.90;;;;;;5097054;28;20028;-78
2023/03/12 08:20:04;;;;;;;5.47;4.15;;;12.40;99.90;;;;;;5100223;28;19929;-78
2023/03/12 08:22:30;;;;;;;3.83;3.45;;;12.40;99.90;;;;;;5103879;28;20041;-79
2023/03/12 08:24:56;;;;;;;2.93;2.73;;;12.40;99.90;;;;;;5106248;28;20089;-79
2023/03/12 08:27:22;;;;;;;0.28;0.28;;;12.30;99.90;;;;;;5104147;28;20032;-78
2023/03/12 08:29:47;;;;;;;2.75;1.80;;;12.10;99.90;;;;;;5100942;28;20475;-77
2023/03/12 08:32:13;;;;;;;1.83;0.83;;;12.10;99.90;;;;;;5100544;28;20020;-78
2023/03/12 08:34:39;;;;;;;2.08;0.90;;;12.00;99.90;;;;;;5102139;28;20019;-78
2023/03/12 08:37:04;;;;;;;0.30;0.30;;;12.30;99.90;;;;;;5101194;28;20478;-78
2023/03/12 08:39:31;;;;;;;0.30;0.30;;;12.30;99.90;;;;;;5082459;28;20028;-77
2023/03/12 08:41:57;;;;;;;1.25;1.13;;;12.10;99.90;;;;;;5093238;28;20028;-77
2023/03/12 08:44:23;;;;;;;0.00;0.00;;;11.90;99.90;;;;;;5097035;28;20043;-77
2023/03/12 08:46:50;;;;;;;0.00;0.00;;;11.60;99.90;;;;;;5097788;28;20261;-77
2023/03/12 08:49:16;;;;;;;0.17;0.17;;;11.40;99.90;;;;;;5103628;28;20028;-77
2023/03/12 08:51:42;;;;;;;0.25;0.25;;;11.40;99.90;;;;;;5103852;28;20062;-77
2023/03/12 08:54:08;;;;;;;0.00;0.00;;;11.60;99.90;;;;;;5094262;28;20118;-78
2023/03/12 08:56:35;;;;;;;1.83;0.47;;;11.80;99.90;;;;;;5103715;28;20559;-77
2023/03/12 08:59:01;;;;;;;9.60;0.73;;;11.80;99.90;;;;;;5096213;28;20261;-77
2023/03/12 09:01:27;;;;;;;0.73;0.73;;;11.50;99.90;;;;;;5099598;28;20027;-78
2023/03/12 09:03:54;;;;;;;0.07;0.07;;;12.00;99.90;;;;;;5097426;28;20075;-77
2023/03/12 09:06:20;;;;;;;0.00;0.00;;;12.40;99.90;;;;;;5103437;28;20110;-77
2023/03/12 09:08:48;;;;;;;1.73;0.33;;;12.00;99.90;;;;;;5090834;28;20034;-77
2023/03/12 09:11:14;;;;;;;0.00;0.00;;;12.60;99.90;;;;;;5102327;28;20630;-79
2023/03/12 09:13:41;;;;;;;0.10;0.10;;;12.90;99.90;;;;;;5095633;28;20028;-78
2023/03/12 09:16:07;;;;;;;0.00;0.00;;;13.30;99.90;;;;;;5098319;28;20034;-77
2023/03/12 09:18:34;;;;;;;0.20;0.20;;;13.70;99.90;;;;;;5099113;28;20027;-78
2023/03/12 09:21:00;;;;;;;0.00;0.00;;;13.40;99.90;;;;;;5097717;28;20148;-77
2023/03/12 09:23:27;;;;;;;0.10;0.10;;;13.80;99.90;;;;;;5098832;28;20047;-78
2023/03/12 09:25:53;;;;;;;0.00;0.00;;;14.60;99.90;;;;;;5096594;28;20035;-78
2023/03/12 09:28:19;;;;;;;1.25;0.57;;;14.80;99.90;;;;;;5099828;28;20035;-78
2023/03/12 09:30:45;;;;;;;0.40;0.40;;;14.70;99.90;;;;;;5094687;28;20028;-77
2023/03/12 09:33:12;;;;;;;0.00;0.00;;;13.90;99.90;;;;;;5095038;28;20054;-77
2023/03/12 09:35:38;;;;;;;0.47;0.22;;;14.90;99.90;;;;;;5093762;28;20110;-78
2023/03/12 09:38:05;;;;;;;0.00;0.00;;;15.20;99.90;;;;;;5103990;28;20867;-77
2023/03/12 09:40:35;;;;;;;0.00;0.00;;;15.30;99.90;;;;;;5101911;28;20031;-77
2023/03/12 09:43:03;;;;;;;0.00;0.00;;;17.20;99.90;;;;;;5103311;28;20037;-78
2023/03/12 09:45:38;;;;;;;0.00;0.00;;;15.60;99.90;;;;;;5095273;28;20039;-78
2023/03/12 09:48:06;;;;;;;0.08;0.08;;;14.40;99.90;;;;;;5095770;28;20756;-78
2023/03/12 09:50:43;;;;;;;0.38;0.38;;;13.80;99.90;;;;;;5101289;28;20561;-77
2023/03/12 09:53:23;;;;;;;0.20;0.20;;;14.10;99.90;;;;;;5100464;28;20028;-77
2023/03/12 09:55:51;;;;;;;0.63;0.63;;;14.40;99.90;;;;;;5103120;28;20019;-78
2023/03/12 09:58:27;;;;;;;0.03;0.03;;;13.80;99.90;;;;;;5102265;28;20768;-78
2023/03/12 10:01:15;;;;;;;0.20;0.20;;;14.00;99.90;;;;;;5104388;28;20026;-77
2023/03/12 10:04:00;;;;;;;0.00;0.00;;;14.80;99.90;;;;;;5097990;28;20350;-77
2023/03/12 10:06:34;;;;;;;0.00;0.00;;;14.70;99.90;;;;;;5095408;28;20089;-78
2023/03/12 10:09:36;;;;;;;0.10;0.10;;;14.40;99.90;;;;;;5102887;28;20047;-77
2023/03/12 10:12:14;;;;;;;0.00;0.00;;;14.60;99.90;;;;;;5095286;28;20031;-77
2023/03/12 10:15:00;;;;;;;0.22;0.22;;;14.30;99.90;;;;;;5091924;28;20135;-78
2023/03/12 10:17:38;;;;;;;;;;;14.10;99.90;;;;;;5095437;28;20550;-78
2023/03/12 10:20:40;;;;;;;0.20;0.20;;;14.40;99.90;;;;;;5103429;28;19930;-78
2023/03/12 10:23:27;;;;;;;1.08;0.95;;;14.80;99.90;;;;;;5090134;28;20205;-78
2023/03/12 10:26:11;;;;;;;;;;;14.80;99.90;;;;;;5104369;28;20015;-77
2023/03/12 10:28:44;;;;;;;6.65;1.23;;;14.60;99.90;;;;;;5100867;28;20331;-78
2023/03/12 10:31:25;;;;;;;0.28;0.28;;;15.00;99.90;;;;;;5093971;28;20024;-77
2023/03/12 10:33:55;;;;;;;0.10;0.10;;;14.80;99.90;;;;;;5102851;28;20030;-78
2023/03/12 10:36:32;;;;;;;1.48;1.38;;;15.10;99.90;;;;;;5088108;28;20029;-78
2023/03/12 10:38:58;;;;;;;0.70;0.70;;;15.00;99.90;;;;;;5088907;28;20031;-77
2023/03/12 10:41:28;;;;;;;6.35;5.68;;;15.70;99.90;;;;;;5095433;28;20101;-78
2023/03/12 10:44:00;;;;;;;8.32;3.35;;;15.80;99.90;;;;;;5099861;28;20253;-78
2023/03/12 10:46:46;;;;;;;10.88;2.72;;;15.60;99.90;;;;;;5093029;28;20035;-78
2023/03/12 10:49:20;;;;;;;0.52;0.52;;;15.20;99.90;;;;;;5095566;28;20032;-78
2023/03/12 10:51:56;;;;;;;0.10;0.10;;;15.70;99.90;;;;;;5095351;28;20098;-78
2023/03/12 10:54:27;;;;;;;1.45;1.05;;;16.10;99.90;;;;;;5099373;28;20024;-78
2023/03/12 10:56:52;;;;;;;0.63;0.63;;;15.80;99.90;;;;;;5094527;28;20488;-78
2023/03/12 10:59:25;;;;;;;0.30;0.30;;;16.00;99.90;;;;;;5090695;28;20023;-78
2023/03/12 11:01:52;;;;;;;0.15;0.15;;;16.00;99.90;;;;;;5094366;28;20434;-78
2023/03/12 11:04:23;;;;;;;0.10;0.10;;;15.70;99.90;;;;;;5093574;28;20060;-77
2023/03/12 11:07:26;;;;;;;0.00;0.00;;;16.40;99.90;;;;;;5092549;28;20068;-79
2023/03/12 11:10:07;;;;;;;0.10;0.10;;;16.30;99.90;;;;;;5099266;28;20036;-79
2023/03/12 11:12:38;;;;;;;0.45;0.30;;;16.80;99.90;;;;;;5100712;28;20030;-79
2023/03/12 11:15:22;;;;;;;0.10;0.10;;;16.40;99.90;;;;;;5090306;28;20055;-78
2023/03/12 11:17:48;;;;;;;0.20;0.20;;;16.00;99.90;;;;;;5087448;28;20024;-78
2023/03/12 11:20:25;;;;;;;0.10;0.10;;;16.00;99.90;;;;;;5094854;28;20034;-78
2023/03/12 11:22:51;;;;;;;0.50;0.50;;;15.80;99.90;;;;;;5098255;28;20031;-78
2023/03/12 11:25:25;;;;;;;0.20;0.20;;;15.70;99.90;;;;;;5094949;28;20027;-78
2023/03/12 11:28:01;;;;;;;1.25;0.90;;;15.60;99.90;;;;;;5093199;28;20847;-78
2023/03/12 11:30:39;;;;;;;0.10;0.10;;;15.20;99.90;;;;;;5096287;28;20088;-78
2023/03/12 11:33:05;;;;;;;1.83;1.48;;;15.20;99.90;;;;;;5089616;28;20531;-78
2023/03/12 11:36:03;;;;;;;3.17;2.92;;;14.70;99.90;;;;;;5096769;28;20028;-78
2023/03/12 11:38:42;;;;;;;0.30;0.30;;;14.30;99.90;;;;;;5087400;28;20032;-78
2023/03/12 11:41:36;;;;;;;0.15;0.10;;;14.50;99.90;;;;;;5091848;28;20019;-78
2023/03/12 11:44:16;;;;;;;0.10;0.10;;;14.60;99.90;;;;;;5089995;28;20039;-78
2023/03/12 11:47:06;;;;;;;6.13;2.50;;;14.70;99.90;;;;;;5103352;28;20575;-78
2023/03/12 11:49:44;;;;;;;0.32;0.32;;;14.90;99.90;;;;;;5100766;28;20031;-79
2023/03/12 11:52:29;;;;;;;1.10;1.08;;;14.80;99.90;;;;;;5099423;28;20047;-78
2023/03/12 11:55:33;;;;;;;4.90;1.33;;;14.70;99.90;;;;;;5093586;28;20102;-78
2023/03/12 11:58:24;;;;;;;0.13;0.13;;;14.90;99.90;;;;;;5055143;28;20454;-78
2023/03/12 12:01:00;;;;;;;1.27;1.25;;;14.80;99.90;;;;;;5101056;28;20038;-78
2023/03/12 12:04:02;;;;;;;1.15;1.15;;;14.90;99.90;;;;;;5100520;28;20521;-78
2023/03/12 12:06:48;;;;;;;1.13;1.13;;;15.40;99.90;;;;;;5100125;28;20043;-78
2023/03/12 12:09:38;;;;;;;0.20;0.20;;;15.90;99.90;;;;;;5100512;28;20465;-78
2023/03/12 12:12:07;;;;;;;0.13;0.13;;;16.20;99.90;;;;;;5094449;28;20027;-78
2023/03/12 12:14:53;;;;;;;2.55;2.35;;;16.20;99.90;;;;;;5102182;28;20034;-79
2023/03/12 12:17:31;;;;;;;0.30;0.30;;;16.00;99.90;;;;;;5101229;28;20038;-78
2023/03/12 12:20:12;;;;;;;0.20;0.20;;;16.50;99.90;;;;;;5096971;28;20251;-79
2023/03/12 12:23:15;;;;;;;0.80;0.80;;;16.60;99.90;;;;;;5089572;28;20024;-83
2023/03/12 12:26:16;;;;;;;6.60;2.45;;;16.40;99.90;;;;;;5088753;28;20448;-79
2023/03/12 12:29:24;;;;;;;0.13;0.13;;;16.50;99.90;;;;;;5087648;28;20104;-81
2023/03/12 12:31:57;;;;;;;0.00;0.00;;;16.40;99.90;;;;;;5083308;28;20039;-82
2023/03/12 12:34:55;;;;;;;4.00;2.50;;;15.80;99.90;;;;;;5096348;28;20028;-83
2023/03/12 12:37:30;;;;;;;0.25;0.25;;;15.40;99.90;;;;;;5085849;28;20055;-82
2023/03/12 12:40:07;;;;;;;0.45;0.40;;;16.10;99.90;;;;;;5093975;28;20114;-82
2023/03/12 12:42:47;;;;;;;0.30;0.30;;;16.20;99.90;;;;;;5093157;28;20028;-81
2023/03/12 12:45:14;;;;;;;0.30;0.30;;;16.30;99.90;;;;;;5094839;28;20047;-82
2023/03/12 12:47:49;;;;;;;0.95;0.68;;;16.00;99.90;;;;;;5096008;28;20016;-80
2023/03/12 12:50:23;;;;;;;28.33;0.90;;;15.90;99.90;;;;;;5097846;28;20653;-80
2023/03/12 12:52:57;;;;;;;0.32;0.25;;;15.50;99.90;;;;;;5094807;28;20368;-79
2023/03/12 12:55:34;;;;;;;0.35;0.35;;;15.60;99.90;;;;;;5093062;28;20119;-81
2023/03/12 12:58:06;;;;;;;0.10;0.10;;;15.90;99.90;;;;;;5096967;28;20024;-80
2023/03/12 13:01:04;;;;;;;0.10;0.10;;;15.90;99.90;;;;;;5096055;28;20107;-79